Latest Weather Observations for Williamtown

IDN60801

Issued at 10:35 pm EST Wednesday 20 August 2014 (issued every 30 minutes, with the page automatically refreshed every 10 minutes)

About weather observations | Map of weather stations | Latest weather observations for NSW | Other Formats
Station Details ID: 061078 Name: WILLIAMTOWN RAAF Lat: -32.79 Lon: 151.84 Height: 9.0 m
Data from the previous 72 hours. | See also: Recent months at Williamtown
Date/Time
EST
Temp
°C
App
Temp
°C
Dew
Point
Rel
Hum
%
Delta-T
°C
Wind Press
QNH
hPa
Press
MSL
hPa
Rain
since 9 am
mm
Dir
 
Spd
km/h
Gust
km/h
Spd
kts
Gust
kts
20/10:30pm 13.6 11.2 9.9 78 1.9 SSW 13 15 7 8 1026.0 - 0.0
20/10:00pm 14.4 10.9 8.8 69 2.8 S 17 24 9 13 1026.1 - 0.0
20/09:30pm 14.2 10.3 8.6 69 2.8 S 19 24 10 13 1026.2 - 0.0
20/09:00pm 14.1 10.7 9.2 72 2.5 S 17 26 9 14 1026.1 1026.2 0.0
20/08:30pm 14.0 10.3 9.3 73 2.4 S 19 26 10 14 1026.1 - 0.0
20/08:00pm 14.1 10.8 9.6 74 2.3 S 17 32 9 17 1026.0 - 0.0
20/07:30pm 13.5 10.6 9.6 77 2.0 S 15 22 8 12 1025.8 - 0.0
20/07:00pm 13.1 11.3 11.0 87 1.1 S 11 15 6 8 1025.6 - 0.0
20/06:30pm 12.7 8.4 10.8 88 1.0 SSE 24 33 13 18 1025.4 - 0.0
20/06:00pm 13.0 9.6 10.5 85 1.3 SW 19 26 10 14 1025.1 1025.2 0.0
20/05:30pm 12.8 8.3 10.1 84 1.4 SSW 24 35 13 19 1024.7 - 0.0
20/05:00pm 13.2 9.7 10.3 82 1.5 SW 19 24 10 13 1024.4 - 0.0
20/04:30pm 13.7 10.2 10.2 79 1.8 SW 19 26 10 14 1024.2 - 0.0
20/04:00pm 13.1 9.6 10.2 82 1.5 SW 19 26 10 14 1024.1 - 0.0
20/03:28pm 12.9 8.0 11.4 91 0.8 SSW 28 41 15 22 1024.1 - 0.0
20/03:00pm 14.4 9.8 9.5 72 2.5 SW 24 33 13 18 1023.9 1024.0 0.0
20/02:30pm 13.5 8.1 9.6 77 2.0 SW 28 33 15 18 1023.8 - 0.0
20/02:00pm 14.1 9.0 9.2 72 2.5 SSW 26 35 14 19 1023.8 - 0.0
20/01:30pm 16.0 10.3 8.3 60 3.9 S 28 39 15 21 1023.5 - 0.0
20/01:00pm 15.8 9.8 8.5 62 3.7 S 30 41 16 22 1023.4 - 0.0
20/12:30pm 17.2 11.4 7.9 54 4.7 S 28 39 15 21 1023.4 - 0.0
20/12:00pm 17.0 10.9 8.1 55 4.5 SSW 30 41 16 22 1023.7 1023.8 0.0
20/11:30am 16.4 9.8 7.6 56 4.4 S 32 43 17 23 1023.9 - 0.0
20/11:00am 15.6 11.2 7.5 58 4.0 SW 20 30 11 16 1024.2 - 0.0
20/10:30am 15.0 10.8 8.2 64 3.4 SW 20 28 11 15 1024.4 - 0.0
20/10:00am 13.9 10.3 8.3 69 2.8 SW 17 26 9 14 1024.3 - 0.0
20/09:30am 13.7 9.5 7.6 66 3.0 SW 19 28 10 15 1024.1 - 0.0
20/09:00am 13.1 9.4 7.8 70 2.6 SW 17 24 9 13 1023.7 1023.8 22.0
20/08:30am 12.8 8.5 7.2 69 2.7 WSW 19 26 10 14 1023.5 - 22.0
20/08:00am 12.5 9.0 7.1 69 2.6 WSW 15 20 8 11 1023.3 - 22.0
20/07:30am 11.8 8.7 7.2 73 2.2 WSW 13 20 7 11 1023.1 - 22.0
20/07:00am 11.1 7.0 6.2 72 2.3 WSW 17 22 9 12 1022.8 - 22.0
20/06:30am 10.9 6.5 6.4 74 2.1 WSW 19 24 10 13 1022.3 - 22.0
20/06:00am 10.8 6.3 6.3 74 2.1 WSW 19 24 10 13 1021.9 1022.0 22.0
20/05:30am 11.8 6.4 6.5 70 2.5 SW 24 32 13 17 1021.6 - 22.0
20/05:00am 11.8 6.9 7.0 72 2.3 SW 22 33 12 18 1021.2 - 22.0
20/04:30am 11.4 7.6 7.4 76 1.9 WSW 17 20 9 11 1020.9 - 22.0
20/04:00am 11.4 7.6 7.4 76 1.9 WSW 17 24 9 13 1020.5 - 21.8
20/03:30am 11.0 7.7 8.1 82 1.4 WSW 15 20 8 11 1020.3 - 21.8
20/03:00am 10.7 8.0 8.9 89 0.9 W 13 17 7 9 1020.3 1020.4 21.8
20/02:30am 10.8 7.8 9.2 90 0.8 WSW 15 19 8 10 1020.5 - 21.8
20/02:00am 11.2 7.4 9.0 86 1.1 WSW 19 24 10 13 1020.5 - 21.8
20/01:30am 11.5 7.5 9.1 85 1.2 SW 20 35 11 19 1020.5 - 21.6
20/01:00am 11.7 7.9 8.9 83 1.4 SW 19 28 10 15 1020.6 - 21.6
20/12:30am 11.5 7.6 8.7 83 1.4 WSW 19 22 10 12 1020.4 - 21.6
20/12:00am 11.5 7.4 8.7 83 1.4 WSW 20 28 11 15 1020.0 1020.1 21.6
 
Date/Time
EST
Temp
°C
App
Temp
°C
Dew
Point
Rel
Hum
%
Delta-T
°C
Wind Press
QNH
hPa
Press
MSL
hPa
Rain
since 9 am
mm
Dir
 
Spd
km/h
Gust
km/h
Spd
kts
Gust
kts
19/11:30pm 11.6 7.6 9.2 85 1.2 WSW 20 30 11 16 1020.0 - 21.6
19/11:00pm 11.7 7.4 9.5 86 1.1 WSW 22 30 12 16 1019.8 - 21.6
19/10:47pm 11.5 8.3 9.9 90 0.8 WSW 17 24 9 13 1019.9 - 21.4
19/10:31pm 11.5 8.8 10.3 92 0.6 WSW 15 22 8 12 1019.8 - 21.0
19/10:30pm 11.6 8.9 10.2 91 0.7 WSW 15 22 8 12 1019.8 - 21.0
19/10:14pm 11.9 8.2 10.3 90 0.8 SW 20 26 11 14 1020.0 - 19.8
19/10:00pm 11.9 8.9 10.7 92 0.6 SSW 17 33 9 18 1020.1 - 18.8
19/09:45pm 12.0 8.6 10.6 91 0.7 SW 19 28 10 15 1019.9 - 16.8
19/09:30pm 12.1 9.1 10.7 91 0.7 SW 17 28 9 15 1019.8 - 15.2
19/09:00pm 12.4 8.1 10.7 89 0.9 WSW 24 32 13 17 1019.6 1019.7 13.8
19/08:30pm 12.5 7.8 10.8 89 0.9 SW 26 39 14 21 1019.4 - 13.4
19/08:14pm 12.5 8.6 10.8 89 0.9 SW 22 33 12 18 1019.4 - 13.2
19/08:00pm 12.4 9.0 11.1 92 0.7 S 20 32 11 17 1019.6 - 12.8
19/07:50pm 12.7 8.0 10.8 88 1.0 SSW 26 33 14 18 1019.5 - 10.0
19/07:30pm 12.6 7.9 10.7 88 1.0 SW 26 37 14 20 1018.8 - 9.4
19/07:00pm 13.0 8.3 10.7 86 1.2 SW 26 33 14 18 1018.5 - 9.4
19/06:30pm 13.2 9.8 11.3 88 1.0 SW 20 28 11 15 1018.1 - 9.2
19/06:00pm 13.3 8.5 11.6 89 0.9 SW 28 37 15 20 1017.5 1017.6 9.2
19/05:30pm 13.7 9.2 11.4 86 1.2 SW 26 41 14 22 1016.9 - 9.0
19/05:00pm 14.4 9.8 11.2 81 1.7 SSW 26 37 14 20 1016.3 - 8.8
19/04:30pm 13.9 9.9 11.7 86 1.2 SW 24 35 13 19 1015.8 - 8.8
19/04:00pm 14.0 8.4 11.6 85 1.3 SSW 32 50 17 27 1015.5 - 8.4
19/03:30pm 13.9 6.2 11.5 85 1.3 SSW 43 56 23 30 1015.3 - 8.0
19/03:00pm 13.9 8.2 11.8 87 1.1 SSW 33 54 18 29 1015.0 1015.1 5.0
19/02:45pm 13.8 9.0 11.7 87 1.1 S 28 48 15 26 1015.1 - 4.8
19/02:34pm 14.1 8.4 11.7 85 1.3 SSW 33 46 18 25 1015.2 - 3.4
19/02:30pm 15.0 8.8 11.3 78 2.0 SSW 35 46 19 25 1014.9 - 2.4
19/02:14pm 15.6 9.8 11.5 76 2.2 SSW 33 52 18 28 1014.4 - 2.4
19/02:00pm 15.2 10.3 12.5 84 1.5 SSW 30 39 16 21 1014.4 - 2.4
19/01:30pm 14.6 9.9 12.0 84 1.4 SSW 28 39 15 21 1014.2 - 2.4
19/01:27pm 14.1 8.6 11.9 86 1.2 SSW 32 44 17 24 1014.2 - 2.4
19/01:13pm 13.9 8.8 11.9 88 1.1 SSW 30 52 16 28 1014.3 - 2.2
19/01:00pm 16.2 10.4 11.6 74 2.5 SSW 33 43 18 23 1014.1 - 0.0
19/12:30pm 15.7 10.1 12.0 78 2.0 SW 33 50 18 27 1014.1 - 0.0
19/12:21pm 16.5 10.0 10.5 67 3.2 SW 35 50 19 27 1014.0 - 0.0
19/12:00pm 16.8 9.4 11.2 69 3.0 SSW 41 61 22 33 1014.0 1014.1 0.0
19/11:35am 17.3 10.9 10.8 65 3.5 S 35 54 19 29 1014.3 - 0.0
19/11:30am 16.3 10.4 11.1 71 2.8 S 33 48 18 26 1014.2 - 0.0
19/11:25am 16.0 9.4 11.4 74 2.5 S 37 56 20 30 1014.3 - 0.0
19/11:00am 18.7 12.0 11.0 61 4.2 S 37 48 20 26 1014.2 - 0.0
19/10:30am 17.6 11.9 11.7 68 3.2 SSW 33 43 18 23 1014.2 - 0.0
19/10:00am 16.8 10.0 10.6 67 3.3 S 37 56 20 30 1014.1 - 0.0
19/09:51am 17.0 10.7 11.1 68 3.2 S 35 56 19 30 1014.1 - 0.0
19/09:30am 17.1 10.1 11.2 68 3.2 S 39 52 21 28 1014.0 - 0.0
19/09:17am 16.2 10.7 11.8 75 2.4 S 32 50 17 27 1013.8 - 0.0
19/09:00am 15.9 10.1 11.6 75 2.3 S 33 48 18 26 1013.6 1013.7 22.0
19/08:38am 15.5 8.9 11.2 75 2.3 S 37 56 20 30 1013.3 - 22.0
19/08:30am 15.3 9.2 11.6 78 2.0 S 35 52 19 28 1013.2 - 22.0
19/08:06am 14.1 8.4 11.7 85 1.3 SSW 33 52 18 28 1012.9 - 22.0
19/08:00am 14.0 6.8 12.0 88 1.1 S 41 56 22 30 1012.9 - 22.0
19/07:30am 15.4 10.6 11.7 78 2.0 S 28 48 15 26 1012.3 - 21.6
19/07:00am 13.9 8.3 12.2 89 0.9 S 33 44 18 24 1011.9 - 21.6
19/06:48am 13.8 8.9 12.5 92 0.7 SSW 30 48 16 26 1011.8 - 21.0
19/06:40am 13.8 9.3 12.7 93 0.6 SW 28 41 15 22 1011.5 - 20.4
19/06:30am 13.3 10.3 12.6 95 0.4 SW 20 39 11 21 1011.3 - 20.2
19/06:00am 12.5 8.9 11.9 96 0.3 WSW 22 35 12 19 1010.9 1011.0 20.0
19/05:59am 12.5 8.9 11.9 96 0.3 WSW 22 35 12 19 1010.9 - 20.0
19/05:38am 12.2 8.6 11.8 97 0.2 W 22 33 12 18 1010.8 - 18.4
19/05:30am 12.1 8.8 11.7 97 0.2 W 20 30 11 16 1010.4 - 16.6
19/05:08am 12.0 8.3 11.4 96 0.3 W 22 32 12 17 1010.4 - 14.2
19/05:00am 11.9 7.4 11.5 97 0.2 WNW 26 32 14 17 1010.2 - 12.6
19/04:59am 11.9 7.4 11.3 96 0.3 WNW 26 32 14 17 1010.1 - 12.4
19/04:40am 11.9 8.1 11.3 96 0.3 W 22 30 12 16 1010.1 - 11.6
19/04:30am 11.9 7.8 11.3 96 0.3 WNW 24 32 13 17 1010.0 - 10.6
19/04:26am 11.9 7.8 11.3 96 0.3 WNW 24 32 13 17 1009.9 - 10.0
19/04:15am 11.9 8.5 11.3 96 0.3 WNW 20 28 11 15 1009.8 - 9.0
19/04:00am 11.8 7.7 11.4 97 0.2 WNW 24 32 13 17 1009.9 - 7.6
19/03:46am 11.9 8.1 11.3 96 0.3 WNW 22 28 12 15 1009.8 - 7.6
19/03:34am 11.9 8.1 11.3 96 0.3 WNW 22 30 12 16 1009.9 - 6.8
19/03:30am 11.9 8.5 11.3 96 0.3 WNW 20 28 11 15 1009.8 - 6.8
19/03:17am 12.0 9.2 11.2 95 0.4 W 17 24 9 13 1009.9 - 6.2
19/03:13am 12.1 8.9 11.1 94 0.5 W 19 24 10 13 1009.9 - 4.8
19/03:00am 12.2 8.8 11.1 93 0.6 W 20 26 11 14 1009.9 1010.0 3.8
19/02:30am 12.3 8.7 10.6 89 0.9 WNW 20 28 11 15 1009.5 - 3.6
19/02:00am 12.3 8.7 10.4 88 1.0 W 20 28 11 15 1009.4 - 3.6
19/01:30am 12.1 8.5 10.4 89 0.9 W 20 30 11 16 1009.4 - 3.6
19/01:00am 11.8 8.3 10.2 90 0.8 W 19 24 10 13 1009.3 - 3.6
19/12:30am 12.2 8.6 10.5 89 0.9 W 20 26 11 14 1009.3 - 3.6
19/12:00am 12.6 9.3 10.9 89 0.9 W 19 26 10 14 1009.1 1009.2 2.8
 
Date/Time
EST
Temp
°C
App
Temp
°C
Dew
Point
Rel
Hum
%
Delta-T
°C
Wind Press
QNH
hPa
Press
MSL
hPa
Rain
since 9 am
mm
Dir
 
Spd
km/h
Gust
km/h
Spd
kts
Gust
kts
18/11:30pm 12.5 8.9 10.6 88 1.0 W 20 30 11 16 1008.7 - 2.4
18/11:00pm 13.1 7.6 10.4 84 1.4 W 30 39 16 21 1008.4 - 2.4
18/10:30pm 13.2 7.2 10.7 85 1.3 W 33 44 18 24 1007.8 - 2.4
18/10:00pm 13.3 7.6 11.0 86 1.2 W 32 43 17 23 1007.4 - 2.4
18/09:36pm 13.2 8.2 10.9 86 1.2 W 28 46 15 25 1007.1 - 2.2
18/09:30pm 13.1 8.1 10.8 86 1.2 W 28 39 15 21 1007.1 - 2.2
18/09:04pm 13.4 7.9 10.5 82 1.5 W 30 48 16 26 1006.8 - 2.0
18/09:00pm 13.6 8.0 10.1 79 1.8 W 30 43 16 23 1006.6 1006.7 2.0
18/08:40pm 14.4 8.1 9.1 70 2.7 W 32 50 17 27 1006.4 - 1.8
18/08:30pm 14.5 8.6 9.0 69 2.8 W 30 39 16 21 1006.4 - 1.8
18/08:00pm 14.2 8.4 9.5 73 2.4 W 30 41 16 22 1006.3 - 1.8
18/07:30pm 13.9 9.4 10.0 77 2.0 W 24 39 13 21 1006.4 - 1.8
18/07:00pm 13.8 8.7 10.6 81 1.7 W 28 37 15 20 1006.3 - 1.8
18/06:30pm 14.3 9.1 10.3 77 2.1 W 28 44 15 24 1006.1 - 1.8
18/06:00pm 14.0 8.6 10.8 81 1.7 W 30 39 16 21 1005.8 1005.9 1.8
18/05:47pm 13.9 8.5 10.9 82 1.6 WSW 30 50 16 27 1005.6 - 1.8
18/05:30pm 13.8 8.4 11.0 83 1.5 WSW 30 41 16 22 1005.5 - 1.8
18/05:00pm 13.6 8.1 11.7 88 1.0 WSW 32 43 17 23 1005.1 - 1.8
18/04:30pm 13.9 7.8 11.9 88 1.1 WSW 35 57 19 31 1004.7 - 1.8
18/04:16pm 13.9 8.9 12.1 89 1.0 WSW 30 48 16 26 1004.5 - 1.8
18/04:00pm 13.9 8.5 12.2 89 0.9 WSW 32 44 17 24 1004.2 - 1.8
18/03:52pm 14.0 9.0 12.3 89 0.9 WSW 30 46 16 25 1004.0 - 1.8
18/03:30pm 13.9 9.9 13.0 94 0.5 WSW 26 37 14 20 1003.8 - 1.6
18/03:07pm 13.9 9.4 12.6 92 0.7 WSW 28 46 15 25 1003.6 - 1.0
18/03:00pm 13.4 9.9 12.3 93 0.6 W 22 30 12 16 1003.6 1003.7 1.0
18/02:39pm 13.9 10.5 11.1 83 1.5 WNW 20 26 11 14 1003.5 - 0.0
18/02:30pm 14.6 11.0 10.4 76 2.2 WNW 20 28 11 15 1003.3 - 0.0
18/02:00pm 14.5 10.9 10.5 77 2.1 W 20 30 11 16 1003.3 - 0.0
18/01:30pm 14.9 9.6 9.7 71 2.7 WNW 28 33 15 18 1003.2 - 0.0
18/01:00pm 15.2 9.2 8.5 64 3.4 WNW 30 35 16 19 1003.2 - 0.0
18/12:30pm 15.5 9.5 8.7 64 3.5 WNW 30 44 16 24 1003.2 - 0.0
18/12:00pm 15.1 8.5 7.9 62 3.6 WNW 32 41 17 22 1003.2 1003.3 0.0
18/11:30am 16.1 10.3 7.8 58 4.2 WNW 28 41 15 22 1003.3 - 0.0
18/11:21am 16.4 9.9 8.1 58 4.2 WNW 32 50 17 27 1003.4 - 0.0
18/11:00am 16.4 8.9 8.1 58 4.2 WNW 37 48 20 26 1003.5 - 0.0
18/10:30am 15.5 8.1 8.2 62 3.7 WNW 37 52 20 28 1003.8 - 0.0
18/10:00am 14.4 6.9 8.0 65 3.2 WNW 37 48 20 26 1004.0 - 0.0
18/09:30am 13.7 6.6 8.1 69 2.8 WNW 35 46 19 25 1004.0 - 0.0
18/09:00am 13.2 6.6 8.4 72 2.4 WNW 33 41 18 22 1003.9 1004.0 0.2
18/08:38am 12.8 6.4 8.4 74 2.2 WNW 32 50 17 27 1003.8 - 0.2
18/08:30am 12.6 6.2 8.4 75 2.1 WNW 32 44 17 24 1003.8 - 0.2
18/08:00am 11.3 5.7 8.7 84 1.3 WNW 28 33 15 18 1003.8 - 0.2
18/07:42am 11.2 5.6 8.6 84 1.3 WNW 28 39 15 21 1003.8 - 0.0
18/07:30am 11.8 5.4 7.0 72 2.3 WNW 30 41 16 22 1003.7 - 0.0
18/07:00am 11.4 5.3 6.6 72 2.3 WNW 28 37 15 20 1003.7 - 0.0
18/06:30am 10.5 5.9 6.5 76 1.9 WNW 20 28 11 15 1003.4 - 0.0
18/06:00am 9.1 5.3 5.8 80 1.5 NW 15 19 8 10 1003.2 1003.3 0.0
18/05:30am 8.4 4.5 5.5 82 1.3 WNW 15 19 8 10 1003.0 - 0.0
18/05:00am 8.3 4.4 5.4 82 1.3 NW 15 15 8 8 1002.6 - 0.0
18/04:30am 8.3 4.4 5.4 82 1.3 NW 15 17 8 9 1002.6 - 0.0
18/04:00am 8.0 4.5 5.3 83 1.2 WNW 13 15 7 8 1003.0 - 0.0
18/03:30am 8.1 5.3 5.0 81 1.4 W 9 11 5 6 1003.2 - 0.0
18/03:00am 8.1 4.5 5.0 81 1.4 WNW 13 15 7 8 1003.2 1003.3 0.0
18/02:30am 9.1 6.6 4.9 75 1.9 W 7 11 4 6 1003.5 - 0.0
18/02:00am 10.8 6.8 5.1 68 2.6 NW 15 17 8 9 1003.9 - 0.0
18/01:30am 11.4 6.5 5.1 65 2.9 NW 20 26 11 14 1004.0 - 0.0
18/01:00am 11.3 6.9 5.0 65 2.9 NW 17 24 9 13 1004.5 - 0.0
18/12:30am 11.0 6.7 5.1 67 2.7 NW 17 20 9 11 1004.8 - 0.0
18/12:00am 11.1 6.4 5.2 67 2.7 NW 19 24 10 13 1005.0 1005.1 0.0
 
Date/Time
EST
Temp
°C
App
Temp
°C
Dew
Point
Rel
Hum
%
Delta-T
°C
Wind Press
QNH
hPa
Press
MSL
hPa
Rain
since 9 am
mm
Dir
 
Spd
km/h
Gust
km/h
Spd
kts
Gust
kts
17/11:30pm 11.4 6.5 5.1 65 2.9 WNW 20 28 11 15 1005.1 - 0.0
17/11:00pm 12.2 6.8 4.5 59 3.5 WNW 22 32 12 17 1005.3 - 0.0

Other Formats:

Comma delimited format used in spreadsheet applications
http://www.bom.gov.au/fwo/IDN60801/IDN60801.94776.axf

JavaScript Object Notation format (JSON) in row-major order
http://www.bom.gov.au/fwo/IDN60801/IDN60801.94776.json